Chicago Bridge — H9NR — position and weather

sailwx.info

Track history (hours):
 
Tides and Currents Weather Stations Pressure Air Temp Water Temp Dewpoint Dewpoint Depression Visibility Wind Speed Wind Dir Waves Ship Positions

Chicago Bridge

Last reported at 2016-May-24 23:12 UTC. Time now 2016-May-29 07:47 UTC.
Position N 36°30' E 122°34'.

Length 279 m; draft 12.3 m.

Type: Ship (hazmat cat B). MMSI: 352018000.

Date/timePositionNaut miles runAvg speedWind from/ knotsBaromVisibWave heightAir tempDewpointWater temp
2016-May-24 23:12N 36°30' E 122°34'1419.6
2016-May-24 22:30N 36°41' E 122°44'1919.9
2016-May-24 21:33N 36°53' E 123°02'4319.6
2016-May-24 19:21N 37°34' E 123°18'1619.6
2016-May-24 18:33N 37°48' E 123°09'2221.8
2016-May-24 17:33N 37°56' E 122°43'2421.4
2016-May-24 16:25N 38°04' E 122°14'1821.0
2016-May-24 15:33N 38°11' E 121°52'6917.3
2016-May-24 11:33N 38°36' E 120°30'2221.6
2016-May-24 10:31N 38°38' E 120°02'10317.3
2016-May-24 04:33N 38°58' E 117°51'4 2.5
2016-May-24 03:09N 38°58' E 117°47'0 0.0
2016-May-24 02:32N 38°58' E 117°47'0 0.0
2016-May-24 01:32N 38°58' E 117°47'0 0.0
2016-May-23 19:23N 38°58' E 117°47'0 0.0
2016-May-23 14:23N 38°58' E 117°47'0 0.0
2016-May-23 13:05N 38°58' E 117°47'0 0.0
2016-May-23 12:17N 38°58' E 117°47'0 0.0
2016-May-23 11:29N 38°58' E 117°47'0 0.0
2016-May-23 10:23N 38°58' E 117°47'0 0.0
2016-May-23 09:23N 38°58' E 117°47'0 0.0
2016-May-23 08:29N 38°58' E 117°47'0 0.0
2016-May-23 07:17N 38°58' E 117°47'0 0.0
2016-May-23 05:29N 38°58' E 117°47'0 0.0
2016-May-23 04:23N 38°58' E 117°47'0 0.0
2016-May-23 03:29N 38°58' E 117°47'0 0.0
2016-May-23 02:17N 38°58' E 117°47'0 0.0
2016-May-23 01:29N 38°58' E 117°47'0 0.0
2016-May-23 00:23N 38°58' E 117°47'0 0.0
2016-May-22 23:33N 38°58' E 117°47'0 0.1
2016-May-22 22:33N 38°58' E 117°47'9 9.4
2016-May-22 21:33N 38°57' E 117°59'1110.4
2016-May-22 20:31N 38°53' E 118°12'10513.1
2016-May-22 12:33N 38°39' E 120°25'5911.7
2016-May-22 07:31N 38°20' E 121°36'6913.1
2016-May-22 02:14N 37°59' E 123°00'913.3
2016-May-22 01:31N 37°56' E 123°11'1615.8
2016-May-22 00:32N 37°48' E 123°28'4819.9
2016-May-21 22:07N 37°03' E 123°50'9919.6
2016-May-21 17:04N 35°24' E 123°56'78618.5
2016-May-19 22:33N 22°47' E 119°53'2219.7
2016-May-19 21:27N 22°25' E 119°52'  
2016-May-16 11:06N 01°15' E 104°04'917.0
2016-May-16 10:33N 01°13' E 103°55'6 5.8
2016-May-16 09:33N 01°16' E 103°50'0 0.0
2016-May-16 08:31N 01°16' E 103°50'0 0.0
2016-May-16 07:31N 01°16' E 103°50'0 0.0
2016-May-16 06:28N 01°16' E 103°50'0 0.0
2016-May-16 04:25N 01°16' E 103°50'0 0.0
2016-May-16 03:31N 01°16' E 103°50'0 0.0
2016-May-16 02:25N 01°16' E 103°50'0 0.0
2016-May-16 01:28N 01°16' E 103°50'0 0.0
2016-May-16 00:31N 01°16' E 103°50'0 0.0
2016-May-15 23:31N 01°16' E 103°50'0 0.0
2016-May-15 22:31N 01°16' E 103°50'0 0.0
2016-May-15 21:25N 01°16' E 103°50'0 0.0
2016-May-15 20:13N 01°16' E 103°50'0 0.0
2016-May-15 18:19N 01°16' E 103°50'0 0.0
2016-May-15 17:31N 01°16' E 103°50'0 0.0
2016-May-15 16:28N 01°16' E 103°50'0 0.5
2016-May-15 15:33N 01°16' E 103°50'2 1.6
2016-May-15 14:33N 01°15' E 103°52'4 3.8
2016-May-15 13:33N 01°12' E 103°52'1212.2
2016-May-15 12:33N 01°04' E 103°42'  
Track history (hours):
 
Tides and Currents Weather Stations Pressure Air Temp Water Temp Dewpoint Dewpoint Depression Visibility Wind Speed Wind Dir Waves Ship Positions

Chicago Bridge

Last reported at 2016-May-24 23:12 UTC. Time now 2016-May-29 07:47 UTC.
Position N 36°30' E 122°34'.

Length 279 m; draft 12.3 m.

Type: Ship (hazmat cat B). MMSI: 352018000.

Date/timePositionNaut miles runAvg speedWind from/ knotsBaromVisibWave heightAir tempDewpointWater temp
2016-May-24 23:12N 36°30' E 122°34'1419.6
2016-May-24 22:30N 36°41' E 122°44'1919.9
2016-May-24 21:33N 36°53' E 123°02'4319.6
2016-May-24 19:21N 37°34' E 123°18'1619.6
2016-May-24 18:33N 37°48' E 123°09'2221.8
2016-May-24 17:33N 37°56' E 122°43'2421.4
2016-May-24 16:25N 38°04' E 122°14'1821.0
2016-May-24 15:33N 38°11' E 121°52'6917.3
2016-May-24 11:33N 38°36' E 120°30'2221.6
2016-May-24 10:31N 38°38' E 120°02'10317.3
2016-May-24 04:33N 38°58' E 117°51'4 2.5
2016-May-24 03:09N 38°58' E 117°47'0 0.0
2016-May-24 02:32N 38°58' E 117°47'0 0.0
2016-May-24 01:32N 38°58' E 117°47'0 0.0
2016-May-23 19:23N 38°58' E 117°47'0 0.0
2016-May-23 14:23N 38°58' E 117°47'0 0.0
2016-May-23 13:05N 38°58' E 117°47'0 0.0
2016-May-23 12:17N 38°58' E 117°47'0 0.0
2016-May-23 11:29N 38°58' E 117°47'0 0.0
2016-May-23 10:23N 38°58' E 117°47'0 0.0
2016-May-23 09:23N 38°58' E 117°47'0 0.0
2016-May-23 08:29N 38°58' E 117°47'0 0.0
2016-May-23 07:17N 38°58' E 117°47'0 0.0
2016-May-23 05:29N 38°58' E 117°47'0 0.0
2016-May-23 04:23N 38°58' E 117°47'0 0.0
2016-May-23 03:29N 38°58' E 117°47'0 0.0
2016-May-23 02:17N 38°58' E 117°47'0 0.0
2016-May-23 01:29N 38°58' E 117°47'0 0.0
2016-May-23 00:23N 38°58' E 117°47'0 0.0
2016-May-22 23:33N 38°58' E 117°47'0 0.1
2016-May-22 22:33N 38°58' E 117°47'9 9.4
2016-May-22 21:33N 38°57' E 117°59'1110.4
2016-May-22 20:31N 38°53' E 118°12'10513.1
2016-May-22 12:33N 38°39' E 120°25'5911.7
2016-May-22 07:31N 38°20' E 121°36'6913.1
2016-May-22 02:14N 37°59' E 123°00'913.3
2016-May-22 01:31N 37°56' E 123°11'1615.8
2016-May-22 00:32N 37°48' E 123°28'4819.9
2016-May-21 22:07N 37°03' E 123°50'9919.6
2016-May-21 17:04N 35°24' E 123°56'78618.5
2016-May-19 22:33N 22°47' E 119°53'2219.7
2016-May-19 21:27N 22°25' E 119°52'  
2016-May-16 11:06N 01°15' E 104°04'917.0
2016-May-16 10:33N 01°13' E 103°55'6 5.8
2016-May-16 09:33N 01°16' E 103°50'0 0.0
2016-May-16 08:31N 01°16' E 103°50'0 0.0
2016-May-16 07:31N 01°16' E 103°50'0 0.0
2016-May-16 06:28N 01°16' E 103°50'0 0.0
2016-May-16 04:25N 01°16' E 103°50'0 0.0
2016-May-16 03:31N 01°16' E 103°50'0 0.0
2016-May-16 02:25N 01°16' E 103°50'0 0.0
2016-May-16 01:28N 01°16' E 103°50'0 0.0
2016-May-16 00:31N 01°16' E 103°50'0 0.0
2016-May-15 23:31N 01°16' E 103°50'0 0.0
2016-May-15 22:31N 01°16' E 103°50'0 0.0
2016-May-15 21:25N 01°16' E 103°50'0 0.0
2016-May-15 20:13N 01°16' E 103°50'0 0.0
2016-May-15 18:19N 01°16' E 103°50'0 0.0
2016-May-15 17:31N 01°16' E 103°50'0 0.0
2016-May-15 16:28N 01°16' E 103°50'0 0.5
2016-May-15 15:33N 01°16' E 103°50'2 1.6
2016-May-15 14:33N 01°15' E 103°52'4 3.8
2016-May-15 13:33N 01°12' E 103°52'1212.2
2016-May-15 12:33N 01°04' E 103°42'  

Dump ship's entire track history